Terminal Aerodrome Forecast
Issued by NWS

Home | Current Version | Previous Version | Text Only | Print | Product List | Glossary On
Versions: 1 2 3 4 5 6 7 8 9 10 11 12 13 14 15 16 17 18 19 20 21 22 23 24 25 26 27 28 29 30 31 32 33 34 35 36
027
FTUS41 KOKX 221246 AAA
TAFTEB
TAF AMD
KTEB 221246Z 2213/2318 02010G18KT P6SM -RA OVC050
     FM221700 04010G19KT 5SM -RA OVC015
     FM222000 04009KT 3SM -RAPL OVC007
      TEMPO 2220/2224 3SM -RAPL
     FM230000 03007KT 6SM BR BKN007 OVC015
     FM230600 VRB04KT P6SM BKN015
     FM231300 08005KT P6SM OVC012
     FM231600 09005KT 5SM -RA OVC008=

USA.gov is the U.S. government's official web portal to all federal, state and local government web resources and services.